Terminal Aerodrome Forecast
Issued by NWS

Home | Current Version | Previous Version | Text Only | Print | Product List | Glossary Off
Versions: 1 2 3 4 5 6 7 8 9 10 11 12 13 14 15 16 17 18 19 20 21 22 23 24 25 26 27 28 29 30

000
FTUS43 KLOT 191135
TAFGYY
TAF
KGYY 191135Z 1912/2012 18004KT 3SM BR OVC150
      TEMPO 1912/1915 2SM BR
     FM191500 16005KT 6SM BR OVC150
     FM191700 15008KT 6SM BR BKN100
     FM192000 12009KT P6SM OVC035
     FM192300 10007KT 3SM -RA SCT010 OVC025
     FM200400 09007KT 2SM -RA BR SCT004 OVC007
     FM200600 08007KT 1 1/2SM -RA BR OVC004=

USA.gov is the U.S. government's official web portal to all federal, state and local government web resources and services.